Time;durP1;ratioP1;P1;durP2;ratioP2;P2;SDS_P1;SDS_P2;PMS_P1;PMS_P2;Temp;Humidity;BMP_temperature;BMP_pressure;BME280_temperature;BME280_humidity;BME280_pressure;Samples;Min_cycle;Max_cycle;Signal;HPM_P1;HPM_P2
2023/08/01 00:01:35;;;;;;;17.55;5.80;;;18.20;99.90;;;;;;4938005;28;20183;-81
2023/08/01 00:04:01;;;;;;;16.73;6.25;;;18.10;99.90;;;;;;4924351;29;20184;-82
2023/08/01 00:06:27;;;;;;;18.42;5.93;;;18.10;99.90;;;;;;4926158;29;20183;-81
2023/08/01 00:08:54;;;;;;;20.77;6.13;;;18.10;99.90;;;;;;4931589;29;20723;-82
2023/08/01 00:11:19;;;;;;;18.98;5.70;;;18.10;99.90;;;;;;4923365;29;20196;-82
2023/08/01 00:13:45;;;;;;;16.50;5.90;;;18.10;99.90;;;;;;4916640;29;20594;-82
2023/08/01 00:16:11;;;;;;;20.15;5.90;;;18.00;99.90;;;;;;4931099;29;20700;-82
2023/08/01 00:18:37;;;;;;;14.50;5.18;;;18.00;99.90;;;;;;4929125;29;20810;-82
2023/08/01 00:21:05;;;;;;;15.80;6.28;;;18.00;99.90;;;;;;4926595;29;20217;-82
2023/08/01 00:23:31;;;;;;;19.30;6.40;;;18.00;99.90;;;;;;4921517;29;20258;-81
2023/08/01 00:25:57;;;;;;;14.77;5.40;;;18.00;99.90;;;;;;4933162;29;20187;-82
2023/08/01 00:28:23;;;;;;;17.40;5.90;;;18.00;99.90;;;;;;4927450;29;20184;-82
2023/08/01 00:30:49;;;;;;;18.58;5.75;;;18.00;99.90;;;;;;4934321;29;20198;-82
2023/08/01 00:33:15;;;;;;;17.02;6.10;;;18.00;99.90;;;;;;4927189;29;20562;-83
2023/08/01 00:35:41;;;;;;;17.50;6.13;;;18.00;99.90;;;;;;4936583;29;20214;-82
2023/08/01 00:38:07;;;;;;;16.27;5.63;;;18.00;99.90;;;;;;4917477;29;20186;-82
2023/08/01 00:40:34;;;;;;;20.13;5.60;;;17.90;99.90;;;;;;4943375;29;20221;-82
2023/08/01 00:43:00;;;;;;;16.73;5.55;;;18.00;99.90;;;;;;4919838;29;20198;-82
2023/08/01 00:45:27;;;;;;;17.05;5.25;;;17.90;99.90;;;;;;4931520;29;20664;-82
2023/08/01 00:47:54;;;;;;;12.10;5.03;;;17.90;99.90;;;;;;4933379;29;20191;-81
2023/08/01 00:50:21;;;;;;;9.40;4.95;;;17.90;99.90;;;;;;4926866;29;20258;-81
2023/08/01 00:52:48;;;;;;;11.35;4.82;;;17.90;99.90;;;;;;4925437;29;20307;-81
2023/08/01 00:55:19;;;;;;;13.65;5.05;;;17.90;99.90;;;;;;4930874;29;20663;-82
2023/08/01 00:57:45;;;;;;;13.15;4.97;;;17.90;99.90;;;;;;4917328;29;20208;-83
2023/08/01 01:00:11;;;;;;;17.10;5.75;;;17.90;99.90;;;;;;4924155;29;20307;-82
2023/08/01 01:02:38;;;;;;;14.25;5.32;;;17.80;99.90;;;;;;4930817;29;20196;-81
2023/08/01 01:05:05;;;;;;;13.63;5.75;;;17.80;99.90;;;;;;4926314;29;20269;-82
2023/08/01 01:07:31;;;;;;;12.13;5.53;;;17.80;99.90;;;;;;4920924;29;20192;-82
2023/08/01 01:09:58;;;;;;;10.15;4.70;;;17.80;99.90;;;;;;4918623;29;20199;-82
2023/08/01 01:12:24;;;;;;;13.85;4.78;;;17.80;99.90;;;;;;4920491;29;20207;-81
2023/08/01 01:14:50;;;;;;;9.27;4.57;;;17.80;99.90;;;;;;4916372;29;20688;-82
2023/08/01 01:17:16;;;;;;;11.73;4.82;;;17.80;99.90;;;;;;4934105;29;20675;-81
2023/08/01 01:19:42;;;;;;;11.55;5.15;;;17.70;99.90;;;;;;4921135;29;20287;-82
2023/08/01 01:22:10;;;;;;;15.35;5.32;;;17.80;99.90;;;;;;4933469;29;20693;-81
2023/08/01 01:24:36;;;;;;;11.65;5.07;;;17.70;99.90;;;;;;4931917;29;20206;-82
2023/08/01 01:27:04;;;;;;;9.75;4.82;;;17.70;99.90;;;;;;4916223;29;20188;-81
2023/08/01 01:29:32;;;;;;;11.75;5.20;;;17.70;99.90;;;;;;4932294;29;20195;-81
2023/08/01 01:32:00;;;;;;;14.52;5.30;;;17.70;99.90;;;;;;4933471;29;20196;-81
2023/08/01 01:34:27;;;;;;;13.88;5.05;;;17.60;99.90;;;;;;4922294;29;20184;-82
2023/08/01 01:36:53;;;;;;;10.27;5.03;;;17.60;99.90;;;;;;4909951;29;20222;-81
2023/08/01 01:39:19;;;;;;;12.57;5.38;;;17.60;99.90;;;;;;4914814;29;20216;-80
2023/08/01 01:41:44;;;;;;;13.63;5.32;;;17.60;99.90;;;;;;4932898;29;20183;-81
2023/08/01 01:44:10;;;;;;;14.85;4.93;;;17.60;99.90;;;;;;4915904;29;20302;-81
2023/08/01 01:46:36;;;;;;;11.50;5.30;;;17.60;99.90;;;;;;4932841;29;20220;-81
2023/08/01 01:49:02;;;;;;;12.93;4.82;;;17.50;99.90;;;;;;4924993;29;20597;-83
2023/08/01 01:51:29;;;;;;;11.27;4.90;;;17.50;99.90;;;;;;4912466;29;20204;-81
2023/08/01 01:53:54;;;;;;;12.52;5.30;;;17.50;99.90;;;;;;4917856;29;20259;-82
2023/08/01 01:56:22;;;;;;;13.32;5.03;;;17.50;99.90;;;;;;4918956;29;20222;-82
2023/08/01 01:58:48;;;;;;;11.18;5.15;;;17.50;99.90;;;;;;4919895;29;20255;-82
2023/08/01 02:01:13;;;;;;;10.65;5.10;;;17.50;99.90;;;;;;4916209;29;20219;-82
2023/08/01 02:03:39;;;;;;;9.40;5.20;;;17.50;99.90;;;;;;4899355;29;20203;-81
2023/08/01 02:06:05;;;;;;;14.23;5.65;;;17.40;99.90;;;;;;4928530;29;20271;-82
2023/08/01 02:08:31;;;;;;;12.10;5.80;;;17.40;99.90;;;;;;4926689;29;20184;-81
2023/08/01 02:10:58;;;;;;;15.35;5.90;;;17.40;99.90;;;;;;4919328;29;20199;-81
2023/08/01 02:13:26;;;;;;;16.58;5.63;;;17.40;99.90;;;;;;4922331;29;20227;-82
2023/08/01 02:15:52;;;;;;;14.93;5.20;;;17.40;99.90;;;;;;4939638;28;20724;-81
2023/08/01 02:18:17;;;;;;;14.82;5.32;;;17.40;99.90;;;;;;4911785;29;20287;-82
2023/08/01 02:20:43;;;;;;;9.95;4.80;;;17.30;99.90;;;;;;4922114;29;20505;-82
2023/08/01 02:23:09;;;;;;;9.43;4.45;;;17.30;99.90;;;;;;4919899;29;20661;-82
2023/08/01 02:25:41;;;;;;;12.40;5.22;;;17.30;99.90;;;;;;4920825;29;20218;-82
2023/08/01 02:28:07;;;;;;;12.55;5.60;;;17.30;99.90;;;;;;4922979;29;20183;-82
2023/08/01 02:30:35;;;;;;;16.25;5.75;;;17.20;99.90;;;;;;4916582;29;20192;-82
2023/08/01 02:33:01;;;;;;;13.65;5.18;;;17.20;99.90;;;;;;4928779;29;20274;-81
2023/08/01 02:35:28;;;;;;;12.95;5.32;;;17.20;99.90;;;;;;4915087;29;20277;-81
2023/08/01 02:37:54;;;;;;;8.20;4.47;;;17.10;99.90;;;;;;4919113;29;20191;-81
2023/08/01 02:40:20;;;;;;;13.73;5.15;;;17.10;99.90;;;;;;4916361;29;20228;-81
2023/08/01 02:42:46;;;;;;;11.02;4.90;;;17.10;99.90;;;;;;4932050;29;20268;-82
2023/08/01 02:45:12;;;;;;;15.88;5.20;;;17.10;99.90;;;;;;4926060;29;20602;-81
2023/08/01 02:47:37;;;;;;;13.18;4.95;;;17.10;99.90;;;;;;4928289;29;21447;-82
2023/08/01 02:50:04;;;;;;;8.73;4.55;;;17.00;99.90;;;;;;4917331;29;20199;-81
2023/08/01 02:52:30;;;;;;;10.43;4.70;;;17.00;99.90;;;;;;4930873;29;20222;-81
2023/08/01 02:54:55;;;;;;;9.82;4.53;;;17.00;99.90;;;;;;4918226;29;20217;-81
2023/08/01 02:57:21;;;;;;;12.57;4.60;;;17.00;99.90;;;;;;4935175;29;20202;-81
2023/08/01 02:59:47;;;;;;;11.43;4.53;;;17.00;99.90;;;;;;4919338;29;20226;-81
2023/08/01 03:02:13;;;;;;;10.63;4.95;;;17.00;99.90;;;;;;4913898;29;20326;-82
2023/08/01 03:04:39;;;;;;;10.48;5.13;;;17.00;99.90;;;;;;4919557;29;20200;-81
2023/08/01 03:07:04;;;;;;;14.35;4.97;;;17.00;99.90;;;;;;4930902;29;20295;-81
2023/08/01 03:09:32;;;;;;;14.95;5.07;;;17.00;99.90;;;;;;4936561;29;20187;-81
2023/08/01 03:11:59;;;;;;;11.20;4.93;;;16.90;99.90;;;;;;4934164;29;20282;-82
2023/08/01 03:14:24;;;;;;;10.88;5.03;;;16.90;99.90;;;;;;4918666;29;20362;-82
2023/08/01 03:16:53;;;;;;;14.63;5.50;;;16.90;99.90;;;;;;4920795;29;20676;-83
2023/08/01 03:19:19;;;;;;;14.23;4.95;;;16.90;99.90;;;;;;4908059;29;20275;-82
2023/08/01 03:21:45;;;;;;;13.65;5.70;;;17.00;99.90;;;;;;4914394;29;20231;-83
2023/08/01 03:24:10;;;;;;;12.63;5.78;;;17.00;99.90;;;;;;4936587;29;20187;-82
2023/08/01 03:26:36;;;;;;;17.75;5.75;;;17.00;99.90;;;;;;4923050;29;21061;-82
2023/08/01 03:29:02;;;;;;;14.15;5.80;;;17.00;99.90;;;;;;4926239;29;20656;-81
2023/08/01 03:31:29;;;;;;;15.50;5.75;;;17.00;99.90;;;;;;4928590;29;20223;-82
2023/08/01 03:33:55;;;;;;;15.02;6.00;;;17.00;99.90;;;;;;4925918;29;20190;-81
2023/08/01 03:36:20;;;;;;;16.05;5.78;;;17.00;99.90;;;;;;4925042;29;20184;-81
2023/08/01 03:38:46;;;;;;;13.95;6.10;;;16.90;99.90;;;;;;4919048;29;20195;-80
2023/08/01 03:41:13;;;;;;;14.93;6.38;;;16.90;99.90;;;;;;4910523;29;20219;-81
2023/08/01 03:43:39;;;;;;;17.25;6.90;;;16.90;99.90;;;;;;4931211;29;20200;-81
2023/08/01 03:46:05;;;;;;;14.70;6.82;;;16.90;99.90;;;;;;4933547;29;20214;-81
2023/08/01 03:48:31;;;;;;;19.75;6.93;;;16.90;99.90;;;;;;4915688;29;20660;-82
2023/08/01 03:50:57;;;;;;;15.77;6.90;;;16.90;99.90;;;;;;4931621;29;20621;-81
2023/08/01 03:53:22;;;;;;;13.93;6.80;;;16.90;99.90;;;;;;4935816;29;20648;-81
2023/08/01 03:55:48;;;;;;;14.57;6.32;;;16.80;99.90;;;;;;4929274;29;20271;-82
2023/08/01 03:58:14;;;;;;;15.00;6.50;;;16.80;99.90;;;;;;4917377;29;20200;-81
2023/08/01 04:00:40;;;;;;;12.52;6.32;;;16.80;99.90;;;;;;4929224;29;20258;-82
2023/08/01 04:03:06;;;;;;;12.60;5.63;;;16.80;99.90;;;;;;4915197;29;20192;-81
2023/08/01 04:05:32;;;;;;;10.68;5.50;;;16.80;99.90;;;;;;4928149;29;20638;-81
2023/08/01 04:07:59;;;;;;;10.68;5.15;;;16.80;99.90;;;;;;4926997;29;20274;-81
2023/08/01 04:10:25;;;;;;;9.52;4.72;;;16.80;99.90;;;;;;4931410;29;20554;-81
2023/08/01 04:12:51;;;;;;;11.07;5.13;;;16.80;99.90;;;;;;4935178;29;20179;-81
2023/08/01 04:15:17;;;;;;;11.20;4.53;;;16.80;99.90;;;;;;4931618;29;20226;-82
2023/08/01 04:17:43;;;;;;;12.50;4.20;;;16.80;99.90;;;;;;4925941;29;20191;-81
2023/08/01 04:20:09;;;;;;;12.82;4.50;;;16.80;99.90;;;;;;4934324;29;20210;-81
2023/08/01 04:22:34;;;;;;;11.50;3.60;;;16.80;99.90;;;;;;4933538;29;20190;-81
2023/08/01 04:25:02;;;;;;;11.13;3.67;;;16.80;99.90;;;;;;4930077;29;20192;-81
2023/08/01 04:27:28;;;;;;;10.70;3.67;;;16.80;99.90;;;;;;4935110;29;20191;-80
2023/08/01 04:29:55;;;;;;;11.98;3.60;;;16.80;99.90;;;;;;4931001;29;20188;-81
2023/08/01 04:32:20;;;;;;;7.72;3.58;;;16.80;99.90;;;;;;4929122;29;20187;-80
2023/08/01 04:34:46;;;;;;;11.95;3.83;;;16.80;99.90;;;;;;4932475;29;20198;-80
2023/08/01 04:37:12;;;;;;;10.95;4.28;;;16.80;99.90;;;;;;4926447;29;20188;-80
2023/08/01 04:39:38;;;;;;;10.48;3.58;;;16.80;99.90;;;;;;4935081;29;20192;-81
2023/08/01 04:42:05;;;;;;;7.63;3.45;;;16.80;99.90;;;;;;4925436;29;20238;-81
2023/08/01 04:44:30;;;;;;;10.52;3.15;;;16.80;99.90;;;;;;4914828;29;20246;-81
2023/08/01 04:46:56;;;;;;;10.93;3.50;;;16.80;99.90;;;;;;4929435;29;20662;-80
2023/08/01 04:49:22;;;;;;;9.50;3.53;;;16.80;99.90;;;;;;4932780;29;20188;-81
2023/08/01 04:51:50;;;;;;;13.38;3.50;;;16.80;99.90;;;;;;4923708;29;20191;-81
2023/08/01 04:54:16;;;;;;;9.88;3.00;;;16.80;99.90;;;;;;4919468;29;20222;-81
2023/08/01 04:56:41;;;;;;;9.95;3.30;;;16.80;99.90;;;;;;4915833;29;20243;-81
2023/08/01 04:59:07;;;;;;;7.80;2.90;;;16.80;99.90;;;;;;4931814;29;20183;-81
2023/08/01 05:01:33;;;;;;;9.77;3.30;;;16.80;99.90;;;;;;4924143;29;20227;-81
2023/08/01 05:03:59;;;;;;;9.30;2.92;;;16.80;99.90;;;;;;4912734;29;20569;-80
2023/08/01 05:06:25;;;;;;;11.32;2.92;;;16.80;99.90;;;;;;4915953;29;20199;-81
2023/08/01 05:08:51;;;;;;;8.77;2.70;;;16.80;99.90;;;;;;4920037;29;20186;-81
2023/08/01 05:11:16;;;;;;;10.27;2.70;;;16.80;99.90;;;;;;4929039;29;20653;-81
2023/08/01 05:13:42;;;;;;;9.45;2.80;;;16.80;99.90;;;;;;4932568;29;20223;-81
2023/08/01 05:16:08;;;;;;;7.63;2.67;;;16.80;99.90;;;;;;4928891;29;20324;-80
2023/08/01 05:18:36;;;;;;;13.20;3.10;;;16.80;99.90;;;;;;4915241;29;20668;-81
2023/08/01 05:21:02;;;;;;;10.55;2.95;;;16.80;99.90;;;;;;4910848;29;20211;-80
2023/08/01 05:23:28;;;;;;;10.77;2.85;;;16.80;99.90;;;;;;4910038;29;20235;-81
2023/08/01 05:25:54;;;;;;;12.32;3.00;;;16.90;99.90;;;;;;4929394;29;20679;-81
2023/08/01 05:28:20;;;;;;;11.13;2.90;;;16.90;99.90;;;;;;4936693;29;20196;-81
2023/08/01 05:30:47;;;;;;;10.27;3.20;;;16.90;99.90;;;;;;4931709;29;20542;-81
2023/08/01 05:33:12;;;;;;;6.90;2.80;;;17.00;99.90;;;;;;4924439;29;20195;-81
2023/08/01 05:35:38;;;;;;;9.32;2.90;;;17.00;99.90;;;;;;4917015;29;20188;-81
2023/08/01 05:38:04;;;;;;;9.68;2.75;;;17.00;99.90;;;;;;4930202;29;20259;-81
2023/08/01 05:40:30;;;;;;;10.57;3.10;;;17.00;99.90;;;;;;4926105;29;20590;-82
2023/08/01 05:42:55;;;;;;;10.90;2.60;;;17.00;99.90;;;;;;4928304;29;20245;-82
2023/08/01 05:45:21;;;;;;;9.48;2.90;;;16.90;99.90;;;;;;4920571;29;20192;-81
2023/08/01 05:47:47;;;;;;;8.43;2.65;;;16.90;99.90;;;;;;4933552;29;20251;-81
2023/08/01 05:50:15;;;;;;;8.98;2.70;;;16.90;99.90;;;;;;4911697;29;20331;-81
2023/08/01 05:52:41;;;;;;;7.22;2.63;;;16.90;99.90;;;;;;4913661;29;20184;-82
2023/08/01 05:55:07;;;;;;;5.18;2.30;;;16.90;99.90;;;;;;4916702;29;20202;-82
2023/08/01 05:57:33;;;;;;;7.00;2.67;;;16.90;99.90;;;;;;4935273;29;20187;-82
2023/08/01 06:00:03;;;;;;;7.35;2.60;;;16.90;99.90;;;;;;4934729;29;20723;-82
2023/08/01 06:02:38;;;;;;;9.20;3.22;;;16.90;99.90;;;;;;4917190;29;20203;-81
2023/08/01 06:05:04;;;;;;;7.13;2.85;;;16.90;99.90;;;;;;4922126;29;20694;-81
2023/08/01 06:07:30;;;;;;;10.60;3.20;;;16.90;99.90;;;;;;4925606;29;20265;-81
2023/08/01 06:09:56;;;;;;;7.70;2.97;;;16.90;99.90;;;;;;4920885;29;20263;-81
2023/08/01 06:12:21;;;;;;;7.60;2.78;;;16.90;99.90;;;;;;4935227;29;20194;-81
2023/08/01 06:14:53;;;;;;;8.20;3.20;;;16.90;99.90;;;;;;4932917;29;20259;-81
2023/08/01 06:17:19;;;;;;;8.30;3.30;;;16.90;99.90;;;;;;4922363;29;20191;-81
2023/08/01 06:19:44;;;;;;;7.95;3.25;;;16.90;99.90;;;;;;4926857;29;20278;-81
2023/08/01 06:22:10;;;;;;;6.15;3.08;;;16.90;99.90;;;;;;4926584;29;20202;-81
2023/08/01 06:24:36;;;;;;;8.23;3.08;;;16.90;99.90;;;;;;4932844;29;20283;-81
2023/08/01 06:27:05;;;;;;;6.20;2.80;;;16.90;99.90;;;;;;4923810;29;20211;-81
2023/08/01 06:29:35;;;;;;;8.50;3.03;;;16.90;99.90;;;;;;4898721;29;20204;-80
2023/08/01 06:32:01;;;;;;;7.32;2.92;;;16.90;99.90;;;;;;4915958;29;20196;-81
2023/08/01 06:34:27;;;;;;;9.57;3.25;;;16.90;99.90;;;;;;4912660;29;20643;-81
2023/08/01 06:36:53;;;;;;;5.90;2.80;;;16.90;99.90;;;;;;4919519;29;20219;-80
2023/08/01 06:39:19;;;;;;;5.47;3.28;;;16.90;99.90;;;;;;4917838;29;20199;-82
2023/08/01 06:41:45;;;;;;;7.35;2.55;;;16.90;99.90;;;;;;4933489;29;20226;-80
2023/08/01 06:44:11;;;;;;;5.88;2.53;;;17.00;99.90;;;;;;4913968;29;20198;-80
2023/08/01 06:46:36;;;;;;;5.55;2.53;;;16.90;99.90;;;;;;4910119;29;20294;-80
2023/08/01 06:49:02;;;;;;;6.88;2.72;;;16.90;99.90;;;;;;4896715;29;20191;-84
2023/08/01 06:51:28;;;;;;;5.18;2.50;;;16.90;99.90;;;;;;4918152;29;20588;-82
2023/08/01 06:53:54;;;;;;;5.97;2.55;;;16.90;99.90;;;;;;4929797;29;20572;-82
2023/08/01 06:56:20;;;;;;;8.20;2.30;;;17.00;99.90;;;;;;4915368;29;20204;-82
2023/08/01 06:58:46;;;;;;;5.10;2.10;;;17.00;99.90;;;;;;4924733;29;20180;-81
2023/08/01 07:01:12;;;;;;;8.68;2.50;;;17.00;99.90;;;;;;4908182;29;20764;-82
2023/08/01 07:03:41;;;;;;;4.82;2.40;;;17.00;99.90;;;;;;4932579;29;20203;-83
2023/08/01 07:06:07;;;;;;;12.75;2.30;;;17.00;99.90;;;;;;4930351;29;20218;-82
2023/08/01 07:08:32;;;;;;;8.70;2.30;;;17.00;99.90;;;;;;4923962;29;20211;-82
2023/08/01 07:10:59;;;;;;;6.28;2.50;;;17.00;99.90;;;;;;4922017;29;20274;-82
2023/08/01 07:13:25;;;;;;;5.57;2.40;;;17.00;99.90;;;;;;4907710;29;20227;-83
2023/08/01 07:15:51;;;;;;;5.50;2.17;;;17.10;99.90;;;;;;4915196;29;20188;-80
2023/08/01 07:18:18;;;;;;;4.82;2.40;;;17.10;99.90;;;;;;4938406;29;20753;-81
2023/08/01 07:20:44;;;;;;;6.55;2.45;;;17.10;99.90;;;;;;4935792;29;20583;-80
2023/08/01 07:23:10;;;;;;;6.10;2.10;;;17.10;99.90;;;;;;4929490;29;20225;-81
2023/08/01 07:25:36;;;;;;;6.35;1.83;;;17.10;99.90;;;;;;4915545;29;20200;-80
2023/08/01 07:28:02;;;;;;;7.25;2.05;;;17.10;99.90;;;;;;4926967;29;20196;-81
2023/08/01 07:30:28;;;;;;;6.05;1.75;;;17.20;99.90;;;;;;4935854;29;20211;-82
2023/08/01 07:32:57;;;;;;;10.95;1.75;;;17.20;99.90;;;;;;4932758;29;20188;-80
2023/08/01 07:35:32;;;;;;;7.90;1.50;;;17.20;99.90;;;;;;4923309;29;20202;-81
2023/08/01 07:38:03;;;;;;;11.73;1.77;;;17.30;99.90;;;;;;4928618;29;20184;-81
2023/08/01 07:40:29;;;;;;;7.38;1.58;;;17.30;99.90;;;;;;4931069;29;20208;-81
2023/08/01 07:42:59;;;;;;;6.22;1.55;;;17.30;99.90;;;;;;4933739;29;20281;-82
2023/08/01 07:45:25;;;;;;;6.80;1.42;;;17.30;99.90;;;;;;4931230;29;20195;-81
2023/08/01 07:47:51;;;;;;;8.45;1.85;;;17.30;99.90;;;;;;4918558;29;20195;-81
2023/08/01 07:50:17;;;;;;;9.85;1.40;;;17.30;99.90;;;;;;4931073;29;20328;-81
2023/08/01 07:52:43;;;;;;;6.22;1.58;;;17.30;99.90;;;;;;4914397;29;20199;-81
2023/08/01 07:55:08;;;;;;;8.65;1.80;;;17.30;99.90;;;;;;4915156;29;20264;-81
2023/08/01 07:57:34;;;;;;;10.50;1.83;;;17.20;99.90;;;;;;4925693;29;20184;-81
2023/08/01 08:00:00;;;;;;;9.68;1.98;;;17.30;99.90;;;;;;4930095;29;20289;-80
2023/08/01 08:02:26;;;;;;;10.07;1.83;;;17.20;99.90;;;;;;4920879;29;20219;-81
2023/08/01 08:04:52;;;;;;;10.68;2.08;;;17.30;99.90;;;;;;4923144;29;20605;-81
2023/08/01 08:07:17;;;;;;;8.02;1.42;;;17.40;99.90;;;;;;4943068;28;20188;-82
2023/08/01 08:09:43;;;;;;;6.35;1.58;;;17.50;99.90;;;;;;4923532;29;20676;-83
2023/08/01 08:12:12;;;;;;;6.10;1.83;;;17.70;99.90;;;;;;4905218;29;20533;-85
2023/08/01 08:14:38;;;;;;;7.03;1.77;;;17.80;99.90;;;;;;4927066;29;20317;-82
2023/08/01 08:20:53;;;;;;;1.45;1.00;;;19.40;99.90;;;;;;5051926;28;20579;-64
2023/08/01 08:23:19;;;;;;;1.77;0.90;;;18.60;99.90;;;;;;5053906;28;20630;-63
2023/08/01 08:25:46;;;;;;;3.72;0.80;;;19.20;99.90;;;;;;5057381;28;20499;-61
2023/08/01 08:28:13;;;;;;;1.58;0.75;;;19.80;99.90;;;;;;5048215;28;20218;-62
2023/08/01 08:30:39;;;;;;;0.98;0.60;;;20.30;99.90;;;;;;5051934;28;20187;-63
2023/08/01 08:33:06;;;;;;;0.95;0.55;;;20.70;99.90;;;;;;5046464;28;20179;-63
2023/08/01 08:35:34;;;;;;;3.80;0.88;;;21.10;99.90;;;;;;5039542;28;20187;-61
2023/08/01 08:38:03;;;;;;;1.27;0.60;;;21.40;99.90;;;;;;5045477;28;20197;-62
2023/08/01 08:40:33;;;;;;;1.08;0.60;;;21.60;99.90;;;;;;5046387;28;20215;-61
2023/08/01 08:43:03;;;;;;;2.50;0.63;;;21.80;99.90;;;;;;5045701;28;20187;-63
2023/08/01 08:45:34;;;;;;;0.52;0.50;;;22.00;99.90;;;;;;5048084;28;20191;-65
2023/08/01 08:48:05;;;;;;;1.25;0.65;;;22.10;99.90;;;;;;5044331;28;20183;-64
2023/08/01 08:50:33;;;;;;;2.70;0.60;;;22.20;99.90;;;;;;5051111;28;20210;-62
2023/08/01 08:52:59;;;;;;;2.55;0.88;;;22.30;99.90;;;;;;5045532;28;20187;-65
2023/08/01 08:55:27;;;;;;;2.00;0.55;;;22.40;99.90;;;;;;5050143;28;20220;-63
2023/08/01 08:57:53;;;;;;;1.77;0.70;;;22.50;99.90;;;;;;5055703;28;20192;-62
2023/08/01 09:00:19;;;;;;;2.95;0.70;;;22.60;99.90;;;;;;5052893;28;20301;-63
2023/08/01 09:02:45;;;;;;;2.17;0.70;;;22.70;99.90;;;;;;5055220;28;20266;-67
2023/08/01 09:05:12;;;;;;;0.70;0.50;;;22.80;99.90;;;;;;5049221;28;20301;-66
2023/08/01 09:07:42;;;;;;;0.85;0.55;;;22.90;99.90;;;;;;5051692;28;20187;-64
2023/08/01 09:10:08;;;;;;;1.70;0.60;;;22.90;99.90;;;;;;5047991;28;20229;-64
2023/08/01 09:12:35;;;;;;;1.00;0.50;;;23.00;99.90;;;;;;5045930;28;20229;-61
2023/08/01 09:15:01;;;;;;;2.38;0.50;;;23.10;99.90;;;;;;5046590;28;20190;-62
2023/08/01 09:17:26;;;;;;;1.17;0.63;;;23.20;99.90;;;;;;5052936;28;20175;-63
2023/08/01 09:20:04;;;;;;;0.68;0.55;;;23.30;99.90;;;;;;5051523;28;20278;-63
2023/08/01 09:22:29;;;;;;;1.65;0.73;;;23.40;99.90;;;;;;5043300;28;20300;-64
2023/08/01 09:24:55;;;;;;;0.80;0.52;;;23.50;99.90;;;;;;5045728;28;20699;-63
2023/08/01 09:27:24;;;;;;;0.80;0.52;;;23.50;99.90;;;;;;5048569;28;20655;-63
2023/08/01 09:29:50;;;;;;;1.40;0.80;;;23.60;99.90;;;;;;5047237;28;20187;-62
2023/08/01 09:32:16;;;;;;;1.15;0.50;;;23.60;99.90;;;;;;5032300;28;20669;-65
2023/08/01 09:34:43;;;;;;;0.47;0.47;;;23.70;99.90;;;;;;5028962;28;20176;-63
2023/08/01 09:37:09;;;;;;;0.80;0.50;;;23.70;99.90;;;;;;5041903;28;20187;-64
2023/08/01 09:39:35;;;;;;;0.82;0.52;;;23.70;99.90;;;;;;4969720;28;172926;-64
2023/08/01 09:42:02;;;;;;;0.50;0.50;;;23.70;99.90;;;;;;4914136;28;20315;-62
2023/08/01 09:44:29;;;;;;;1.77;0.60;;;23.70;99.90;;;;;;4600918;28;114824;-61
2023/08/01 09:47:00;;;;;;;1.50;0.55;;;23.70;99.90;;;;;;4969464;28;20193;-62
2023/08/01 09:49:31;;;;;;;1.40;0.60;;;23.70;99.90;;;;;;4980624;28;20340;-61
2023/08/01 09:51:58;;;;;;;2.03;0.60;;;23.70;99.90;;;;;;4977804;28;20185;-60
2023/08/01 09:54:24;;;;;;;1.52;0.50;;;23.70;99.90;;;;;;4975070;28;20188;-61
2023/08/01 09:56:52;;;;;;;0.70;0.60;;;23.70;99.90;;;;;;4975455;28;20215;-61
2023/08/01 09:59:25;;;;;;;1.05;0.52;;;23.70;99.90;;;;;;4974824;28;20288;-61
2023/08/01 10:01:53;;;;;;;1.83;0.77;;;23.70;99.90;;;;;;4978452;28;20200;-61
2023/08/01 10:04:28;;;;;;;0.98;0.55;;;23.80;99.90;;;;;;4980552;28;20194;-61
2023/08/01 10:06:59;;;;;;;3.58;0.70;;;23.80;99.90;;;;;;4974861;28;20642;-60
2023/08/01 10:09:25;;;;;;;1.33;0.60;;;23.90;99.90;;;;;;4974756;28;20186;-61
2023/08/01 10:11:52;;;;;;;2.95;0.70;;;23.90;99.90;;;;;;4974419;28;20182;-61
2023/08/01 10:14:19;;;;;;;1.20;0.60;;;24.00;99.90;;;;;;4974569;28;20211;-61
2023/08/01 10:16:46;;;;;;;1.60;0.68;;;24.00;99.90;;;;;;4973598;28;20537;-61
2023/08/01 10:19:13;;;;;;;1.38;0.52;;;24.10;99.90;;;;;;4973886;28;20236;-61
2023/08/01 10:21:41;;;;;;;1.58;0.70;;;24.10;99.90;;;;;;4974430;28;20186;-61
2023/08/01 10:24:08;;;;;;;1.25;0.60;;;24.20;99.90;;;;;;4983001;28;20189;-61
2023/08/01 10:26:34;;;;;;;1.25;0.50;;;24.30;99.90;;;;;;4977737;28;20736;-60
2023/08/01 10:29:02;;;;;;;0.88;0.60;;;24.30;99.90;;;;;;4974528;28;20216;-60
2023/08/01 10:31:28;;;;;;;1.25;0.50;;;24.30;99.90;;;;;;4973706;28;20312;-60
2023/08/01 10:34:06;;;;;;;0.82;0.50;;;24.30;99.90;;;;;;4978772;28;20268;-62
2023/08/01 10:36:32;;;;;;;1.20;0.60;;;24.30;99.90;;;;;;4984658;28;20213;-60
2023/08/01 10:39:00;;;;;;;0.95;0.63;;;24.30;99.90;;;;;;4989726;28;20296;-60
2023/08/01 10:41:34;;;;;;;2.15;0.60;;;24.30;99.90;;;;;;4973342;28;20194;-60
2023/08/01 10:44:12;;;;;;;0.68;0.40;;;24.30;99.90;;;;;;4977227;28;20208;-60
2023/08/01 10:46:49;;;;;;;0.82;0.50;;;24.30;99.90;;;;;;4980821;28;20182;-60
2023/08/01 10:49:17;;;;;;;1.15;0.60;;;24.40;99.90;;;;;;4973637;28;20189;-60
2023/08/01 10:51:44;;;;;;;1.17;0.40;;;24.40;99.90;;;;;;4973051;28;20201;-61
2023/08/01 10:54:25;;;;;;;4.07;0.70;;;24.50;99.90;;;;;;4974109;28;20178;-59
2023/08/01 10:56:58;;;;;;;1.20;0.40;;;24.50;99.90;;;;;;4986307;28;20192;-59
2023/08/01 10:59:24;;;;;;;2.03;0.60;;;24.50;99.90;;;;;;4973879;28;20226;-59
2023/08/01 11:01:51;;;;;;;1.38;0.50;;;24.50;99.90;;;;;;4973201;28;20198;-61
2023/08/01 11:04:19;;;;;;;0.82;0.50;;;24.50;99.90;;;;;;4973352;28;20821;-59
2023/08/01 11:06:49;;;;;;;0.93;0.40;;;24.50;99.90;;;;;;4979238;28;20190;-59
2023/08/01 11:09:20;;;;;;;0.85;0.50;;;24.50;99.90;;;;;;4969672;28;20183;-62
2023/08/01 11:11:49;;;;;;;1.33;0.50;;;24.50;99.90;;;;;;4973384;28;20218;-60
2023/08/01 11:14:15;;;;;;;1.15;0.50;;;24.50;99.90;;;;;;4973545;28;20273;-60
2023/08/01 11:16:44;;;;;;;0.60;0.40;;;24.50;99.90;;;;;;4976762;28;20665;-62
2023/08/01 11:19:29;;;;;;;1.08;0.50;;;24.50;99.90;;;;;;4975685;28;20271;-65
2023/08/01 11:21:57;;;;;;;1.33;0.50;;;24.50;99.90;;;;;;4973020;28;20318;-64
2023/08/01 11:24:25;;;;;;;1.58;0.60;;;24.50;99.90;;;;;;4973790;28;20197;-63
2023/08/01 11:26:53;;;;;;;2.90;0.50;;;24.60;99.90;;;;;;4973580;28;20280;-64
2023/08/01 11:29:20;;;;;;;0.88;0.50;;;24.60;99.90;;;;;;4974429;28;20208;-66
2023/08/01 11:31:58;;;;;;;0.60;0.40;;;24.60;99.90;;;;;;4980807;28;20249;-63
2023/08/01 11:34:24;;;;;;;0.57;0.38;;;24.60;99.90;;;;;;4973099;28;20196;-62
2023/08/01 11:36:50;;;;;;;0.65;0.30;;;24.60;99.90;;;;;;4973236;28;20272;-62
2023/08/01 11:39:16;;;;;;;0.90;0.40;;;24.70;99.90;;;;;;4975420;28;20215;-62
2023/08/01 11:41:43;;;;;;;1.20;0.52;;;24.70;99.90;;;;;;4977280;28;20186;-63
2023/08/01 11:44:11;;;;;;;1.25;0.60;;;24.70;99.90;;;;;;4973838;28;20186;-64
2023/08/01 11:46:38;;;;;;;3.53;0.70;;;24.70;99.90;;;;;;4973547;28;20194;-64
2023/08/01 11:49:07;;;;;;;1.15;0.55;;;24.80;99.90;;;;;;4972437;28;20197;-61
2023/08/01 11:51:41;;;;;;;1.48;0.45;;;24.80;99.90;;;;;;4982333;28;20273;-61
2023/08/01 11:54:09;;;;;;;0.90;0.40;;;24.90;99.90;;;;;;4976078;28;20217;-64
2023/08/01 11:56:35;;;;;;;1.02;0.50;;;24.90;99.90;;;;;;4973613;28;20174;-64
2023/08/01 11:59:11;;;;;;;2.33;0.70;;;25.00;99.90;;;;;;4973019;28;20216;-64
2023/08/01 12:01:46;;;;;;;0.90;0.50;;;25.00;99.90;;;;;;4978366;28;20264;-62
2023/08/01 12:04:12;;;;;;;0.93;0.40;;;25.10;99.90;;;;;;4972947;28;20177;-61
2023/08/01 12:06:39;;;;;;;1.17;0.40;;;25.10;99.90;;;;;;4971805;28;20192;-61
2023/08/01 12:09:08;;;;;;;1.10;0.55;;;25.10;99.90;;;;;;4972414;28;20241;-63
2023/08/01 12:11:34;;;;;;;1.13;0.50;;;25.20;99.90;;;;;;4978205;28;20194;-63
2023/08/01 12:14:15;;;;;;;1.23;0.50;;;25.20;99.90;;;;;;4982204;28;20619;-63
2023/08/01 12:16:47;;;;;;;2.00;0.70;;;25.20;99.90;;;;;;4970984;28;20206;-63
2023/08/01 12:19:22;;;;;;;1.63;0.60;;;25.20;99.90;;;;;;4972009;28;20241;-63
2023/08/01 12:21:48;;;;;;;3.90;0.80;;;25.20;99.90;;;;;;4972884;28;20387;-63
2023/08/01 12:24:14;;;;;;;4.97;0.80;;;25.30;99.90;;;;;;4983782;28;20186;-64
2023/08/01 12:26:40;;;;;;;1.38;0.60;;;25.20;99.90;;;;;;4973984;28;20188;-63
2023/08/01 12:29:07;;;;;;;1.45;0.60;;;25.20;99.90;;;;;;4972766;28;20190;-63
2023/08/01 12:31:33;;;;;;;1.05;0.45;;;25.20;99.90;;;;;;4970153;28;20646;-63
2023/08/01 12:33:59;;;;;;;1.50;0.90;;;25.20;99.90;;;;;;4982323;28;20195;-64
2023/08/01 12:36:25;;;;;;;1.83;1.13;;;25.20;99.90;;;;;;4971419;28;20657;-64
2023/08/01 12:38:50;;;;;;;1.67;1.05;;;25.20;99.90;;;;;;4971699;28;20324;-63
2023/08/01 12:41:16;;;;;;;2.72;1.13;;;25.30;99.90;;;;;;4972050;28;20712;-64
2023/08/01 12:43:42;;;;;;;2.33;1.40;;;25.30;99.90;;;;;;4978238;28;20662;-64
2023/08/01 12:46:08;;;;;;;2.88;1.40;;;25.40;99.90;;;;;;4982964;28;20658;-64